Decoded Metar for KRBD (DALLAS/REDBIRD in TX, USA) (IATA:RBD) | Meteo·Mobile Aviation Weather
aviador You're here:

KRBD Decoded Metar

DALLAS/REDBIRD in TX, USA
Report Time2018-10-22 08:53:00
UTC Time2018-10-22 09:31:42
Flight Rules vfr VFR
Wind150° at 03 kt
W.Decomp.*RWY 13: 2.9 kt HW 0.7 kt RCW
RWY 17: 2.7 kt HW 1.3 kt LCW
W.Rank150° ranks 4
Current wind is below 150° avg. (7.8)
Visibility9999 m
Phenomena:N/A
Clouds:N/A
Expected CloudBase > 800 ft AGL from Temp-Dew spread
CeilingNone
Temp09°C (ISA -5)
Dew Point07°C (87% RH)
AAT7.2°C
QNH1023 hPa
Density Alt-95 ft
Elevation666 ft
Report Wrong Elevation
Raw Report
KRBD 220853Z AUTO 15003KT 10SM CLR 09/07 A3020 RMK AO2 SLP224
T00940067 58002=

Extra information for KRBD:More info

Metar Taf Metar & Taf Last 4 Metars F.Rules Stats Wind Profile Meteogram Temp Stats Airport Information Weather charts Add Link Nearby VenuesMetar ALERT Operation Metar Decoded Social comments

AIRNAV info for KRBD